Time;durP1;ratioP1;P1;durP2;ratioP2;P2;SDS_P1;SDS_P2;PMS_P1;PMS_P2;Temp;Humidity;BMP_temperature;BMP_pressure;BME280_temperature;BME280_humidity;BME280_pressure;Samples;Min_cycle;Max_cycle;Signal;HPM_P1;HPM_P2
2023/04/06 00:00:33;;;;;;;;;;;;;;;3.17;62.09;101736.03;4937324;29;19922;-82
2023/04/06 00:02:58;;;;;;;;;;;;;;;3.17;62.60;101737.78;4945804;29;19914;-82
2023/04/06 00:05:23;;;;;;;;;;;;;;;3.17;61.48;101735.19;4951262;28;19922;-82
2023/04/06 00:07:49;;;;;;;;;;;;;;;3.17;62.81;101735.19;4943051;29;19918;-82
2023/04/06 00:10:15;;;;;;;;;;;;;;;3.17;62.33;101730.00;4945338;29;19924;-82
2023/04/06 00:12:41;;;;;;;;;;;;;;;3.18;62.09;101726.50;4953780;29;20004;-82
2023/04/06 00:15:06;;;;;;;;;;;;;;;3.17;62.10;101728.25;4950641;29;20355;-82
2023/04/06 00:17:31;;;;;;;;;;;;;;;3.17;62.57;101725.63;4933247;29;19931;-82
2023/04/06 00:19:57;;;;;;;;;;;;;;;3.19;62.21;101728.19;4963356;28;20429;-82
2023/04/06 00:22:22;;;;;;;;;;;;;;;3.22;61.92;101720.34;4952730;29;20430;-82
2023/04/06 00:24:47;;;;;;;;;;;;;;;3.26;61.88;101720.19;4951881;29;19914;-82
2023/04/06 00:27:12;;;;;;;;;;;;;;;3.29;61.02;101716.66;4953126;29;19997;-83
2023/04/06 00:29:38;;;;;;;;;;;;;;;3.33;61.78;101715.66;4952565;29;19957;-82
2023/04/06 00:32:03;;;;;;;;;;;;;;;3.36;61.53;101716.41;4952578;29;20330;-82
2023/04/06 00:34:29;;;;;;;;;;;;;;;3.41;61.68;101705.88;4959422;28;19922;-82
2023/04/06 00:36:55;;;;;;;;;;;;;;;3.44;61.83;101713.56;4950745;29;19922;-82
2023/04/06 00:39:20;;;;;;;;;;;;;;;3.47;61.70;101705.69;4952177;29;20013;-82
2023/04/06 00:41:46;;;;;;;;;;;;;;;3.49;60.73;101708.22;4953565;29;19914;-82
2023/04/06 00:44:11;;;;;;;;;;;;;;;3.51;61.25;101702.06;4952314;29;20335;-82
2023/04/06 00:46:36;;;;;;;;;;;;;;;3.53;60.71;101692.47;4936533;29;19915;-82
2023/04/06 00:49:01;;;;;;;;;;;;;;;3.57;60.86;101703.63;4945380;29;19921;-82
2023/04/06 00:51:27;;;;;;;;;;;;;;;3.59;60.95;101697.47;4931346;29;20324;-82
2023/04/06 00:53:52;;;;;;;;;;;;;;;3.60;60.40;101694.00;4953412;29;19903;-82
2023/04/06 00:56:17;;;;;;;;;;;;;;;3.62;60.96;101687.00;4950829;29;19921;-82
2023/04/06 00:58:43;;;;;;;;;;;;;;;3.65;60.16;101691.25;4949894;29;19914;-82
2023/04/06 01:01:08;;;;;;;;;;;;;;;3.65;61.05;101684.31;4952493;29;20390;-82
2023/04/06 01:03:33;;;;;;;;;;;;;;;3.68;60.25;101680.75;4948540;29;19918;-82
2023/04/06 01:06:01;;;;;;;;;;;;;;;3.70;59.90;101684.16;4945152;29;19919;-82
2023/04/06 01:08:26;;;;;;;;;;;;;;;3.71;60.33;101675.44;4942446;28;19958;-82
2023/04/06 01:10:52;;;;;;;;;;;;;;;3.72;61.05;101675.41;4957567;28;20028;-82
2023/04/06 01:13:17;;;;;;;;;;;;;;;3.72;59.58;101678.00;4962267;28;19911;-82
2023/04/06 01:15:42;;;;;;;;;;;;;;;3.72;61.35;101672.78;4946093;28;20368;-82
2023/04/06 01:18:10;;;;;;;;;;;;;;;3.72;60.96;101667.59;4946538;28;19922;-82
2023/04/06 01:20:35;;;;;;;;;;;;;;;3.71;60.89;101671.09;4932762;29;19911;-82
2023/04/06 01:23:00;;;;;;;;;;;;;;;3.71;60.47;101671.09;4923895;29;19941;-82
2023/04/06 01:25:25;;;;;;;;;;;;;;;3.71;61.08;101671.09;4914348;29;20404;-82
2023/04/06 01:27:51;;;;;;;;;;;;;;;3.71;60.69;101668.50;4913552;29;19926;-82
2023/04/06 01:30:17;;;;;;;;;;;;;;;3.72;61.38;101667.59;4913841;29;19911;-82
2023/04/06 01:32:42;;;;;;;;;;;;;;;3.71;61.20;101665.03;4938015;29;19915;-82
2023/04/06 01:35:07;;;;;;;;;;;;;;;3.71;60.25;101663.28;4949696;29;19958;-82
2023/04/06 01:37:33;;;;;;;;;;;;;;;3.71;60.77;101665.03;4952939;29;19911;-82
2023/04/06 01:39:58;;;;;;;;;;;;;;;3.71;60.67;101660.69;4934032;29;19950;-82
2023/04/06 01:42:24;;;;;;;;;;;;;;;3.71;61.14;101655.47;4916653;29;20499;-82
2023/04/06 01:44:49;;;;;;;;;;;;;;;3.72;61.23;101648.53;4950632;29;20013;-82
2023/04/06 01:47:14;;;;;;;;;;;;;;;3.72;60.44;101641.56;4948706;29;19957;-82
2023/04/06 01:49:39;;;;;;;;;;;;;;;3.73;61.65;101640.66;4946766;29;19961;-82
2023/04/06 01:52:05;;;;;;;;;;;;;;;3.74;60.62;101644.13;4933900;29;20025;-82
2023/04/06 01:54:31;;;;;;;;;;;;;;;3.75;60.62;101641.47;4951781;29;19914;-82
2023/04/06 01:56:56;;;;;;;;;;;;;;;3.76;62.14;101632.75;4935730;29;19966;-82
2023/04/06 01:59:21;;;;;;;;;;;;;;;3.78;62.00;101625.75;4913932;29;20298;-82
2023/04/06 02:01:46;;;;;;;;;;;;;;;3.79;62.30;101624.00;4912462;29;19911;-82
2023/04/06 02:04:13;;;;;;;;;;;;;;;3.80;61.56;101622.25;4945932;29;19915;-82
2023/04/06 02:06:38;;;;;;;;;;;;;;;3.80;61.03;101615.28;4949565;29;20398;-82
2023/04/06 02:09:04;;;;;;;;;;;;;;;3.83;60.86;101616.94;4932114;29;19969;-82
2023/04/06 02:11:32;;;;;;;;;;;;;;;3.84;61.94;101618.63;4914944;29;20382;-82
2023/04/06 02:13:57;;;;;;;;;;;;;;;3.86;60.91;101614.22;4942386;29;19921;-82
2023/04/06 02:16:22;;;;;;;;;;;;;;;3.86;61.80;101616.81;4923087;29;19911;-82
2023/04/06 02:18:49;;;;;;;;;;;;;;;3.88;61.88;101612.41;4932708;29;19957;-82
2023/04/06 02:21:17;;;;;;;;;;;;;;;3.88;62.28;101612.41;4931164;29;20372;-82
2023/04/06 02:23:42;;;;;;;;;;;;;;;3.91;61.63;101617.50;4947475;29;20391;-82
2023/04/06 02:26:07;;;;;;;;;;;;;;;3.91;61.89;101609.69;4933743;29;19921;-82
2023/04/06 02:28:33;;;;;;;;;;;;;;;3.92;62.46;101608.81;4953589;28;19925;-82
2023/04/06 02:30:58;;;;;;;;;;;;;;;3.93;60.75;101600.09;4936450;29;19914;-82
2023/04/06 02:33:23;;;;;;;;;;;;;;;3.94;61.51;101593.97;4937804;29;20001;-82
2023/04/06 02:35:48;;;;;;;;;;;;;;;3.95;61.46;101595.69;4941514;29;19911;-82
2023/04/06 02:38:14;;;;;;;;;;;;;;;3.96;62.33;101592.16;4947157;29;19925;-82
2023/04/06 02:40:39;;;;;;;;;;;;;;;3.97;61.90;101583.44;4946097;29;19970;-82
2023/04/06 02:43:04;;;;;;;;;;;;;;;3.98;62.55;101582.56;4934187;29;19918;-82
2023/04/06 02:45:29;;;;;;;;;;;;;;;3.99;62.22;101581.66;4935325;29;19915;-82
2023/04/06 02:47:55;;;;;;;;;;;;;;;3.99;62.09;101582.50;4938394;29;19921;-82
2023/04/06 02:50:20;;;;;;;;;;;;;;;4.00;62.39;101580.75;4915863;29;19911;-82
2023/04/06 02:52:45;;;;;;;;;;;;;;;4.01;61.63;101580.72;4921943;29;20022;-82
2023/04/06 02:55:10;;;;;;;;;;;;;;;4.02;62.52;101576.38;4943292;29;19914;-82
2023/04/06 02:57:36;;;;;;;;;;;;;;;4.02;61.84;101573.75;4953039;29;19914;-82
2023/04/06 03:00:01;;;;;;;;;;;;;;;4.03;61.66;101570.25;4954633;29;19910;-82
2023/04/06 03:02:26;;;;;;;;;;;;;;;4.05;62.40;101571.91;4954626;29;19914;-82
2023/04/06 03:04:51;;;;;;;;;;;;;;;4.05;62.22;101571.03;4937733;29;20369;-82
2023/04/06 03:07:17;;;;;;;;;;;;;;;4.04;62.14;101558.94;4922868;29;21449;-82
2023/04/06 03:09:42;;;;;;;;;;;;;;;4.05;62.13;101565.84;4946684;29;20420;-82
2023/04/06 03:12:07;;;;;;;;;;;;;;;4.06;62.18;101567.53;4938226;29;20264;-82
2023/04/06 03:14:32;;;;;;;;;;;;;;;4.06;62.80;101563.19;4955233;29;20347;-82
2023/04/06 03:16:58;;;;;;;;;;;;;;;4.06;62.63;101557.97;4939862;29;19910;-82
2023/04/06 03:19:23;;;;;;;;;;;;;;;4.07;62.70;101561.41;4921110;29;19915;-82
2023/04/06 03:21:48;;;;;;;;;;;;;;;4.08;62.85;101557.91;4931071;29;20411;-82
2023/04/06 03:24:13;;;;;;;;;;;;;;;4.08;62.72;101555.31;4954465;29;19949;-82
2023/04/06 03:26:39;;;;;;;;;;;;;;;4.09;62.32;101557.00;4949453;29;20342;-82
2023/04/06 03:29:04;;;;;;;;;;;;;;;4.08;61.88;101545.75;4949737;29;19922;-82
2023/04/06 03:31:30;;;;;;;;;;;;;;;4.09;62.36;101546.59;4935906;29;19911;-82
2023/04/06 03:33:55;;;;;;;;;;;;;;;4.11;62.59;101550.00;4930813;29;19970;-82
2023/04/06 03:36:20;;;;;;;;;;;;;;;4.10;62.45;101543.09;4932126;29;19963;-82
2023/04/06 03:38:45;;;;;;;;;;;;;;;4.11;62.15;101544.78;4913918;29;20411;-82
2023/04/06 03:41:10;;;;;;;;;;;;;;;4.11;62.36;101538.72;4932571;29;20380;-82
2023/04/06 03:43:36;;;;;;;;;;;;;;;4.09;62.34;101537.03;4935767;29;19957;-82
2023/04/06 03:46:01;;;;;;;;;;;;;;;4.11;61.89;101544.78;4935219;29;19915;-82
2023/04/06 03:48:26;;;;;;;;;;;;;;;4.09;62.60;101542.25;4932891;29;19910;-82
2023/04/06 03:50:51;;;;;;;;;;;;;;;4.11;62.17;101550.00;4934252;29;19910;-82
2023/04/06 03:53:17;;;;;;;;;;;;;;;4.11;62.84;101544.78;4930591;29;19937;-82
2023/04/06 03:55:42;;;;;;;;;;;;;;;4.11;62.76;101543.94;4904989;29;19918;-82
2023/04/06 03:58:07;;;;;;;;;;;;;;;4.10;62.29;101543.09;4926864;29;19915;-82
2023/04/06 04:00:32;;;;;;;;;;;;;;;4.09;62.23;101541.38;4934943;29;19911;-82
2023/04/06 04:02:58;;;;;;;;;;;;;;;4.08;62.90;101539.69;4933095;29;19954;-82
2023/04/06 04:05:25;;;;;;;;;;;;;;;4.07;62.70;101541.44;4934222;29;20299;-82
2023/04/06 04:07:50;;;;;;;;;;;;;;;4.07;62.18;101538.00;4933130;29;19954;-82
2023/04/06 04:10:15;;;;;;;;;;;;;;;4.05;62.32;101535.44;4942111;29;19950;-83
2023/04/06 04:12:41;;;;;;;;;;;;;;;4.04;62.80;101538.09;4907192;29;19969;-82
2023/04/06 04:15:06;;;;;;;;;;;;;;;4.02;62.60;101534.72;4933383;29;19949;-82
2023/04/06 04:17:32;;;;;;;;;;;;;;;4.01;62.86;101543.41;4946533;29;20295;-82
2023/04/06 04:19:57;;;;;;;;;;;;;;;4.01;62.81;101540.81;4933777;29;20005;-82
2023/04/06 04:22:22;;;;;;;;;;;;;;;4.00;62.14;101541.69;4933506;29;19919;-82
2023/04/06 04:24:47;;;;;;;;;;;;;;;3.99;61.96;101535.63;4935107;29;19914;-82
2023/04/06 04:27:13;;;;;;;;;;;;;;;3.97;62.81;101537.44;4928805;29;19915;-82
2023/04/06 04:29:38;;;;;;;;;;;;;;;3.97;63.48;101541.81;4917902;29;21704;-82
2023/04/06 04:32:03;;;;;;;;;;;;;;;3.97;63.50;101537.44;4933290;29;19937;-82
2023/04/06 04:34:28;;;;;;;;;;;;;;;3.97;62.92;101528.78;4934957;29;19918;-82
2023/04/06 04:36:54;;;;;;;;;;;;;;;3.98;63.01;101533.09;4933944;29;20001;-82
2023/04/06 04:39:19;;;;;;;;;;;;;;;3.99;62.41;101524.38;4967025;28;20073;-82
2023/04/06 04:41:45;;;;;;;;;;;;;;;3.99;63.88;101530.44;4932361;29;19937;-82
2023/04/06 04:44:10;;;;;;;;;;;;;;;3.99;63.30;101533.03;4933284;29;19918;-82
2023/04/06 04:46:35;;;;;;;;;;;;;;;4.00;63.04;101523.47;4953560;29;19911;-82
2023/04/06 04:49:00;;;;;;;;;;;;;;;4.01;62.88;101528.66;4935996;29;19950;-82
2023/04/06 04:51:26;;;;;;;;;;;;;;;4.03;63.42;101528.59;4951542;28;20327;-82
2023/04/06 04:53:51;;;;;;;;;;;;;;;4.04;63.44;101528.53;4949243;29;19953;-82
2023/04/06 04:56:16;;;;;;;;;;;;;;;4.05;63.92;101524.19;4944943;29;19922;-82
2023/04/06 04:58:42;;;;;;;;;;;;;;;4.08;63.42;101521.47;4958492;28;19915;-82
2023/04/06 05:01:07;;;;;;;;;;;;;;;4.09;62.96;101515.34;4916085;29;19914;-82
2023/04/06 05:03:33;;;;;;;;;;;;;;;4.11;63.40;101518.75;4943880;29;19950;-84
2023/04/06 05:05:58;;;;;;;;;;;;;;;4.13;63.42;101521.28;4943193;29;20010;-82
2023/04/06 05:08:23;;;;;;;;;;;;;;;4.14;63.74;101521.22;4932954;29;19921;-84
2023/04/06 05:10:48;;;;;;;;;;;;;;;4.15;63.72;101525.53;4938357;29;19918;-84
2023/04/06 05:13:14;;;;;;;;;;;;;;;4.16;63.29;101524.63;4948560;29;20331;-84
2023/04/06 05:15:40;;;;;;;;;;;;;;;4.17;63.08;101517.66;4948662;29;19914;-84
2023/04/06 05:18:06;;;;;;;;;;;;;;;4.18;62.94;101515.00;4947170;29;19915;-84
2023/04/06 05:20:31;;;;;;;;;;;;;;;4.20;63.11;101518.41;4949019;29;19920;-84
2023/04/06 05:22:56;;;;;;;;;;;;;;;4.22;63.19;101515.75;4945242;29;20375;-83
2023/04/06 05:25:21;;;;;;;;;;;;;;;4.24;62.90;101519.97;4937996;29;19918;-83
2023/04/06 05:27:47;;;;;;;;;;;;;;;4.26;63.36;101528.59;4937828;29;19919;-83
2023/04/06 05:30:12;;;;;;;;;;;;;;;4.29;63.07;101522.41;4938960;29;19953;-82
2023/04/06 05:32:37;;;;;;;;;;;;;;;4.33;63.19;101524.84;4932916;29;19914;-82
2023/04/06 05:35:02;;;;;;;;;;;;;;;4.36;63.01;101527.34;4922095;29;19915;-83
2023/04/06 05:37:28;;;;;;;;;;;;;;;4.39;63.42;101519.41;4949519;29;20422;-84
2023/04/06 05:39:53;;;;;;;;;;;;;;;4.44;63.53;101518.41;4932115;29;19986;-84
2023/04/06 05:42:18;;;;;;;;;;;;;;;4.48;63.00;101522.59;4932988;29;19914;-84
2023/04/06 05:44:43;;;;;;;;;;;;;;;4.52;63.10;101524.19;4933505;29;19918;-84
2023/04/06 05:47:09;;;;;;;;;;;;;;;4.54;62.91;101523.22;4931813;29;20363;-85
2023/04/06 05:49:34;;;;;;;;;;;;;;;4.58;63.02;101518.72;4932297;29;19917;-81
2023/04/06 05:52:00;;;;;;;;;;;;;;;4.62;63.37;101510.72;4948201;29;19911;-81
2023/04/06 05:54:25;;;;;;;;;;;;;;;4.66;62.85;101517.50;4932437;29;19917;-81
2023/04/06 05:56:51;;;;;;;;;;;;;;;4.71;63.11;101514.72;4932686;29;19949;-81
2023/04/06 05:59:16;;;;;;;;;;;;;;;4.76;62.35;101514.53;4932356;29;19945;-81
2023/04/06 06:01:41;;;;;;;;;;;;;;;4.78;61.90;101518.78;4930365;29;20018;-80
2023/04/06 06:04:06;;;;;;;;;;;;;;;4.83;61.46;101513.41;4934942;29;19958;-81
2023/04/06 06:06:32;;;;;;;;;;;;;;;4.85;62.21;101525.47;4936740;29;19961;-82
2023/04/06 06:09:00;;;;;;;;;;;;;;;4.88;62.97;101532.34;4942030;29;19921;-82
2023/04/06 06:11:26;;;;;;;;;;;;;;;4.91;63.04;101524.38;4943594;29;19962;-82
2023/04/06 06:13:51;;;;;;;;;;;;;;;4.95;62.66;101529.41;4945811;29;19914;-81
2023/04/06 06:16:17;;;;;;;;;;;;;;;4.99;62.62;101525.78;4916985;29;19938;-81
2023/04/06 06:18:42;;;;;;;;;;;;;;;5.04;62.86;101518.63;4921413;29;19922;-80
2023/04/06 06:21:07;;;;;;;;;;;;;;;5.08;62.43;101523.72;4955757;28;19911;-81
2023/04/06 06:23:33;;;;;;;;;;;;;;;5.13;62.84;101521.75;4947916;29;19914;-81
2023/04/06 06:25:58;;;;;;;;;;;;;;;5.17;61.96;101518.09;4944970;29;19925;-80
2023/04/06 06:28:24;;;;;;;;;;;;;;;5.22;63.11;101521.41;4936426;29;19922;-81
2023/04/06 06:30:50;;;;;;;;;;;;;;;5.25;62.85;101516.06;4930099;29;19957;-81
2023/04/06 06:33:15;;;;;;;;;;;;;;;5.28;61.97;101519.38;4940169;29;19958;-81
2023/04/06 06:35:40;;;;;;;;;;;;;;;5.31;62.56;101521.88;4944580;29;19915;-81
2023/04/06 06:38:06;;;;;;;;;;;;;;;5.34;62.24;101523.50;4936312;29;20005;-81
2023/04/06 06:40:31;;;;;;;;;;;;;;;5.35;62.44;101523.44;4942613;28;19957;-81
2023/04/06 06:42:56;;;;;;;;;;;;;;;5.38;62.53;101517.25;4915352;29;19966;-81
2023/04/06 06:45:21;;;;;;;;;;;;;;;5.39;62.71;101513.72;4933022;29;20298;-83
2023/04/06 06:47:47;;;;;;;;;;;;;;;5.42;62.26;101512.75;4936794;29;19915;-81
2023/04/06 06:50:12;;;;;;;;;;;;;;;5.43;62.14;101517.91;4941988;29;19922;-82
2023/04/06 06:52:37;;;;;;;;;;;;;;;5.44;62.46;101511.75;4936888;29;20123;-81
2023/04/06 06:55:02;;;;;;;;;;;;;;;5.47;61.80;101511.63;4930931;29;20301;-81
2023/04/06 06:57:28;;;;;;;;;;;;;;;5.48;62.43;101512.47;4956358;28;19915;-82
2023/04/06 06:59:53;;;;;;;;;;;;;;;5.51;62.33;101518.41;4932808;29;19961;-81
2023/04/06 07:02:18;;;;;;;;;;;;;;;5.54;62.60;101513.06;4932316;29;20111;-81
2023/04/06 07:04:43;;;;;;;;;;;;;;;5.57;61.59;101518.16;4962599;28;19923;-81
2023/04/06 07:07:09;;;;;;;;;;;;;;;5.61;62.10;101509.31;4957569;28;19914;-81
2023/04/06 07:09:35;;;;;;;;;;;;;;;5.64;61.85;101510.94;4947664;29;19915;-81
2023/04/06 07:12:01;;;;;;;;;;;;;;;5.68;62.14;101515.09;4933790;29;19915;-81
2023/04/06 07:14:27;;;;;;;;;;;;;;;5.73;62.56;101512.28;4934049;29;19998;-81
2023/04/06 07:16:52;;;;;;;;;;;;;;;5.77;62.30;101508.63;4935646;29;20525;-81
2023/04/06 07:19:17;;;;;;;;;;;;;;;5.80;62.64;101511.97;4949571;29;19965;-79
2023/04/06 07:21:42;;;;;;;;;;;;;;;5.84;62.13;101510.91;4927966;29;19915;-79
2023/04/06 07:24:08;;;;;;;;;;;;;;;5.89;62.38;101508.97;4961985;28;20013;-81
2023/04/06 07:26:33;;;;;;;;;;;;;;;5.93;62.08;101510.53;4935167;29;19915;-79
2023/04/06 07:28:58;;;;;;;;;;;;;;;5.98;62.52;101507.72;4942863;29;19923;-81
2023/04/06 07:31:23;;;;;;;;;;;;;;;6.06;61.96;101507.41;4951603;29;19918;-79
2023/04/06 07:33:49;;;;;;;;;;;;;;;6.11;62.01;101501.06;4934833;29;19949;-80
2023/04/06 07:36:15;;;;;;;;;;;;;;;6.19;61.58;101508.53;4954122;29;19910;-80
2023/04/06 07:38:40;;;;;;;;;;;;;;;6.23;62.02;101505.72;4936599;29;20399;-80
2023/04/06 07:41:06;;;;;;;;;;;;;;;6.32;62.22;101506.22;4934009;29;20371;-80
2023/04/06 07:43:31;;;;;;;;;;;;;;;6.36;61.61;101502.53;4935644;29;19915;-80
2023/04/06 07:45:57;;;;;;;;;;;;;;;6.43;62.06;101503.97;4935705;29;19915;-80
2023/04/06 07:48:22;;;;;;;;;;;;;;;6.50;62.27;101494.91;4950524;29;19918;-80
2023/04/06 07:50:47;;;;;;;;;;;;;;;6.55;61.90;101503.41;4946397;29;19914;-80
2023/04/06 07:53:13;;;;;;;;;;;;;;;6.56;61.80;101503.31;4940541;29;19916;-80
2023/04/06 07:55:38;;;;;;;;;;;;;;;6.58;61.82;101503.25;4953826;29;19914;-80
2023/04/06 07:58:03;;;;;;;;;;;;;;;6.59;61.73;101503.19;4952577;29;20375;-80
2023/04/06 08:00:29;;;;;;;;;;;;;;;6.63;61.88;101506.50;4931734;29;19945;-80
2023/04/06 08:02:54;;;;;;;;;;;;;;;6.68;62.39;101506.28;4953927;29;19915;-78
2023/04/06 08:05:20;;;;;;;;;;;;;;;6.70;61.77;101501.81;4936580;29;19973;-80
2023/04/06 08:07:45;;;;;;;;;;;;;;;6.76;62.00;101511.97;4942733;29;19910;-80
2023/04/06 08:10:10;;;;;;;;;;;;;;;6.81;61.91;101510.88;4933324;29;19914;-81
2023/04/06 08:12:36;;;;;;;;;;;;;;;6.88;61.93;101499.19;4943628;29;19942;-79
2023/04/06 08:15:02;;;;;;;;;;;;;;;7.00;62.14;101496.91;4941854;29;19965;-86
2023/04/06 08:17:30;;;;;;;;;;;;;;;7.10;62.22;101505.97;4916361;29;19942;-86
2023/04/06 08:19:55;;;;;;;;;;;;;;;7.15;62.02;101509.22;4948681;29;19926;-85
2023/04/06 08:22:20;;;;;;;;;;;;;;;7.22;61.90;101500.16;4943654;29;20427;-80
2023/04/06 08:24:46;;;;;;;;;;;;;;;7.35;62.27;101505.63;4935356;29;20364;-83
2023/04/06 08:27:14;;;;;;;;;;;;;;;7.45;62.28;101501.63;4951113;29;19977;-84
2023/04/06 08:29:39;;;;;;;;;;;;;;;7.53;61.60;101502.06;4941228;29;20435;-78
2023/04/06 08:32:06;;;;;;;;;;;;;;;7.57;61.62;101505.38;4943748;29;19914;-80
2023/04/06 08:34:32;;;;;;;;;;;;;;;7.61;61.74;101504.31;4952498;29;19914;-80
2023/04/06 08:36:57;;;;;;;;;;;;;;;7.62;62.03;101506.03;4947396;29;19911;-80
2023/04/06 08:39:25;;;;;;;;;;;;;;;7.65;62.36;101508.47;4939162;29;19925;-80
2023/04/06 08:41:52;;;;;;;;;;;;;;;7.71;62.29;101509.00;4938854;29;19925;-79
2023/04/06 08:44:18;;;;;;;;;;;;;;;7.76;61.86;101506.16;4941765;29;19964;-80
2023/04/06 08:46:43;;;;;;;;;;;;;;;7.79;62.05;101508.59;4952001;29;19918;-81
2023/04/06 08:49:09;;;;;;;;;;;;;;;7.84;62.15;101511.84;4936546;29;20398;-81
2023/04/06 08:51:34;;;;;;;;;;;;;;;7.88;62.55;101505.50;4932402;29;20387;-79
2023/04/06 08:54:00;;;;;;;;;;;;;;;7.97;62.19;101515.50;4939997;29;19914;-83
2023/04/06 08:56:26;;;;;;;;;;;;;;;8.07;62.42;101511.50;4952236;29;20488;-81
2023/04/06 08:58:52;;;;;;;;;;;;;;;8.13;62.37;101505.91;4951065;29;19911;-81
2023/04/06 09:01:20;;;;;;;;;;;;;;;8.23;62.68;101494.94;4933290;29;19914;-79
2023/04/06 09:03:46;;;;;;;;;;;;;;;8.32;62.48;101505.75;4960460;28;20359;-80
2023/04/06 09:06:12;;;;;;;;;;;;;;;8.42;62.50;101511.41;4933500;29;19911;-83
2023/04/06 09:08:39;;;;;;;;;;;;;;;8.50;62.51;101517.09;4946279;29;20028;-81
2023/04/06 09:11:05;;;;;;;;;;;;;;;8.54;62.66;101515.97;4951880;29;19933;-80
2023/04/06 09:13:30;;;;;;;;;;;;;;;8.59;63.27;101516.56;4951986;29;20359;-82
2023/04/06 09:16:06;;;;;;;;;;;;;;;8.66;62.50;101517.91;4945722;29;19918;-81
2023/04/06 09:18:33;;;;;;;;;;;;;;;8.71;62.99;101520.28;4943455;29;20000;-80
2023/04/06 09:21:02;;;;;;;;;;;;;;;8.74;62.84;101523.59;4942877;29;19973;-84
2023/04/06 09:23:27;;;;;;;;;;;;;;;8.76;63.76;101524.34;4932969;29;19914;-80
2023/04/06 09:26:04;;;;;;;;;;;;;;;8.84;64.58;101520.47;4951744;29;19917;-81
2023/04/06 09:28:40;;;;;;;;;;;;;;;8.86;64.81;101516.00;4927185;29;19963;-80
2023/04/06 09:31:05;;;;;;;;;;;;;;;8.90;65.35;101517.50;4910995;29;19914;-81
2023/04/06 09:33:30;;;;;;;;;;;;;;;8.94;64.88;101513.78;4932790;29;20382;-82
2023/04/06 09:35:56;;;;;;;;;;;;;;;9.01;65.46;101512.50;4918777;29;20072;-83
2023/04/06 09:38:21;;;;;;;;;;;;;;;9.05;65.41;101512.22;4925949;29;20422;-82
2023/04/06 09:40:50;;;;;;;;;;;;;;;9.08;64.45;101511.19;4925487;29;19922;-80
2023/04/06 09:43:26;;;;;;;;;;;;;;;9.12;64.86;101507.47;4913595;29;20009;-79
2023/04/06 09:45:51;;;;;;;;;;;;;;;9.15;63.00;101506.44;4924919;29;19919;-79
2023/04/06 09:48:18;;;;;;;;;;;;;;;9.12;65.71;101507.47;4917391;29;19930;-79
2023/04/06 09:50:44;;;;;;;;;;;;;;;9.09;64.56;101512.88;4947758;29;19915;-79
2023/04/06 09:53:09;;;;;;;;;;;;;;;9.05;65.28;101512.22;4921857;29;20344;-79
2023/04/06 09:55:39;;;;;;;;;;;;;;;9.02;66.35;101511.56;4932951;29;19955;-79
2023/04/06 09:58:06;;;;;;;;;;;;;;;8.95;66.10;101510.22;4932518;29;19938;-79
2023/04/06 10:00:32;;;;;;;;;;;;;;;8.91;66.64;101514.78;4942847;29;19915;-79
2023/04/06 10:03:12;;;;;;;;;;;;;;;8.91;66.41;101503.44;4933636;29;19910;-79
2023/04/06 10:05:40;;;;;;;;;;;;;;;8.93;69.78;101510.31;4919026;29;19957;-80
2023/04/06 10:08:07;;;;;;;;;;;;;;;8.95;70.63;101515.47;4921422;29;19915;-80
2023/04/06 10:10:32;;;;;;;;;;;;;;;8.92;69.54;101507.75;4927896;29;19922;-79
2023/04/06 10:12:58;;;;;;;;;;;;;;;8.94;68.79;101513.78;4932044;29;19910;-79
2023/04/06 10:15:24;;;;;;;;;;;;;;;8.95;68.48;101510.22;4926263;29;19981;-78
2023/04/06 10:17:49;;;;;;;;;;;;;;;8.95;70.71;101511.06;4926256;29;19950;-79
2023/04/06 10:20:17;;;;;;;;;;;;;;;8.96;70.18;101506.66;4931569;29;19922;-79
2023/04/06 10:22:50;;;;;;;;;;;;;;;8.98;68.71;101505.63;4932296;29;19957;-82
2023/04/06 10:25:15;;;;;;;;;;;;;;;8.95;69.87;101510.22;4923080;29;19919;-79
2023/04/06 10:27:40;;;;;;;;;;;;;;;8.94;68.80;101516.41;4936464;29;20009;-80
2023/04/06 10:30:06;;;;;;;;;;;;;;;8.88;71.56;101524.63;4950745;29;19915;-80
2023/04/06 10:32:32;;;;;;;;;;;;;;;8.83;70.86;101516.16;4952141;29;20291;-81
2023/04/06 10:35:04;;;;;;;;;;;;;;;8.79;71.20;101515.47;4932462;29;19910;-81
2023/04/06 10:37:45;;;;;;;;;;;;;;;8.79;70.61;101525.94;4950495;29;20479;-81
2023/04/06 10:40:33;;;;;;;;;;;;;;;8.78;74.40;101513.75;4927694;29;19915;-81
2023/04/06 10:43:08;;;;;;;;;;;;;;;8.74;73.79;101518.34;4922369;29;20291;-80
2023/04/06 10:45:33;;;;;;;;;;;;;;;8.67;71.25;101517.00;4932464;29;19922;-80
2023/04/06 10:47:58;;;;;;;;;;;;;;;8.63;75.37;101504.97;4927921;29;19938;-80
2023/04/06 10:50:24;;;;;;;;;;;;;;;8.63;75.57;101502.34;4932456;29;19958;-80
2023/04/06 10:53:02;;;;;;;;;;;;;;;8.62;74.27;101505.06;4942341;29;19919;-81
2023/04/06 10:55:28;;;;;;;;;;;;;;;8.65;77.15;101503.13;4936375;29;20291;-81
2023/04/06 10:57:54;;;;;;;;;;;;;;;8.60;76.94;101499.91;4938777;29;19925;-81
2023/04/06 11:00:19;;;;;;;;;;;;;;;8.58;71.86;101499.16;4936667;29;19989;-82
2023/04/06 11:02:45;;;;;;;;;;;;;;;8.63;75.25;101491.03;4937497;29;19914;-82
2023/04/06 11:05:11;;;;;;;;;;;;;;;8.68;75.66;101499.47;4925279;29;19922;-82
2023/04/06 11:07:37;;;;;;;;;;;;;;;8.74;75.71;101486.00;4935834;29;19914;-82
2023/04/06 11:10:02;;;;;;;;;;;;;;;8.77;75.16;101486.69;4935536;29;20395;-83
2023/04/06 11:12:30;;;;;;;;;;;;;;;8.81;75.72;101487.38;4935948;29;19921;-83
2023/04/06 11:15:04;;;;;;;;;;;;;;;8.81;74.76;101481.28;4939554;29;19966;-83
2023/04/06 11:17:34;;;;;;;;;;;;;;;8.78;79.08;101491.00;4924060;29;20022;-83
2023/04/06 11:20:03;;;;;;;;;;;;;;;8.80;77.88;101480.41;4940550;29;20280;-83
2023/04/06 11:22:28;;;;;;;;;;;;;;;8.86;76.02;101480.09;4932730;29;19931;-83
2023/04/06 11:25:04;;;;;;;;;;;;;;;8.83;79.91;101479.44;4949208;28;19919;-83
2023/04/06 11:27:31;;;;;;;;;;;;;;;8.88;78.06;101477.38;4942341;29;19958;-83
2023/04/06 11:29:57;;;;;;;;;;;;;;;8.93;81.06;101470.09;4934419;29;19915;-83
2023/04/06 11:32:23;;;;;;;;;;;;;;;8.99;79.21;101469.75;4930551;29;19918;-82
2023/04/06 11:34:48;;;;;;;;;;;;;;;9.00;81.83;101467.03;4938047;29;19968;-82
2023/04/06 11:37:14;;;;;;;;;;;;;;;8.97;80.65;101466.34;4949641;29;20017;-82
2023/04/06 11:39:51;;;;;;;;;;;;;;;8.97;82.30;101455.84;4929131;29;19921;-82
2023/04/06 11:42:27;;;;;;;;;;;;;;;9.00;80.14;101455.69;4935798;29;20017;-82
2023/04/06 11:44:56;;;;;;;;;;;;;;;9.05;79.23;101464.13;4934938;29;20585;-82
2023/04/06 11:47:32;;;;;;;;;;;;;;;9.11;83.30;101448.03;4948488;29;19938;-82
2023/04/06 11:50:05;;;;;;;;;;;;;;;9.13;76.16;101440.91;4934068;29;19973;-82
2023/04/06 11:52:31;;;;;;;;;;;;;;;9.17;78.70;101436.31;4924838;29;19969;-82
2023/04/06 11:54:57;;;;;;;;;;;;;;;9.19;80.54;101440.53;4935134;29;20286;-82
2023/04/06 11:57:25;;;;;;;;;;;;;;;9.22;87.13;101440.38;4934370;29;20239;-81
2023/04/06 11:59:51;;;;;;;;;;;;;;;9.18;81.27;101440.63;4941181;28;19915;-80
2023/04/06 12:02:17;;;;;;;;;;;;;;;9.13;80.20;101438.28;4934460;29;19911;-81
2023/04/06 12:04:42;;;;;;;;;;;;;;;9.08;81.66;101437.69;4934786;29;19918;-80
2023/04/06 12:07:08;;;;;;;;;;;;;;;9.05;79.75;101433.47;4934282;29;20398;-82
2023/04/06 12:09:34;;;;;;;;;;;;;;;8.97;80.90;101433.09;4950047;28;19919;-80
2023/04/06 12:12:02;;;;;;;;;;;;;;;8.91;83.43;101437.84;4934385;29;19994;-80
2023/04/06 12:14:28;;;;;;;;;;;;;;;8.91;83.45;101432.59;4934341;29;19914;-80
2023/04/06 12:16:53;;;;;;;;;;;;;;;8.90;82.29;101423.03;4933116;29;20419;-79
2023/04/06 12:19:18;;;;;;;;;;;;;;;8.93;80.38;101428.09;4940336;29;20749;-80
2023/04/06 12:21:44;;;;;;;;;;;;;;;8.90;84.76;101428.28;4929847;29;19950;-80
2023/04/06 12:24:09;;;;;;;;;;;;;;;8.92;80.04;101431.66;4934099;29;19920;-80
2023/04/06 12:26:35;;;;;;;;;;;;;;;8.87;84.19;101433.72;4933019;29;19919;-81
2023/04/06 12:29:06;;;;;;;;;;;;;;;8.85;83.26;101435.56;4926649;29;19919;-81
2023/04/06 12:31:32;;;;;;;;;;;;;;;8.82;82.06;101428.72;4942000;29;19948;-80
2023/04/06 12:33:58;;;;;;;;;;;;;;;8.75;85.95;101433.44;4932935;29;19957;-79
2023/04/06 12:36:23;;;;;;;;;;;;;;;8.70;81.33;101427.63;4939532;29;19915;-79
2023/04/06 12:38:48;;;;;;;;;;;;;;;8.67;82.32;101427.81;4924826;29;20191;-79
2023/04/06 12:41:14;;;;;;;;;;;;;;;8.62;85.31;101421.97;4936038;29;20403;-79